createdAt,value
2023-02-02T00:00:30.323Z,11.40
2023-02-02T00:05:31.928Z,11.02
2023-02-02T00:10:33.463Z,17.52
2023-02-02T00:15:35.063Z,13.73
2023-02-02T00:20:36.670Z,12.70
2023-02-02T00:25:38.314Z,7.75
2023-02-02T00:30:39.909Z,12.88
2023-02-02T00:35:41.950Z,11.20
2023-02-02T00:40:43.998Z,9.90
2023-02-02T00:45:45.676Z,11.20
2023-02-02T00:50:47.225Z,11.75
2023-02-02T00:55:48.774Z,13.52
2023-02-02T01:00:50.325Z,10.45
2023-02-02T01:05:52.034Z,10.70
2023-02-02T01:10:53.599Z,16.35
2023-02-02T01:15:59.421Z,11.35
2023-02-02T01:21:04.718Z,13.20
2023-02-02T01:26:08.861Z,9.10
2023-02-02T01:31:14.272Z,12.25
2023-02-02T01:36:19.645Z,11.38
2023-02-02T01:41:24.742Z,12.95
2023-02-02T01:46:29.599Z,10.50
2023-02-02T01:51:58.111Z,10.63
2023-02-02T01:57:04.919Z,12.88
2023-02-02T02:02:07.567Z,10.48
2023-02-02T02:07:10.093Z,12.43
2023-02-02T02:12:14.583Z,11.10
2023-02-02T02:17:25.716Z,10.73
2023-02-02T02:23:08.617Z,11.48
2023-02-02T02:28:44.851Z,12.60
2023-02-02T02:34:07.839Z,11.00
2023-02-02T02:39:40.038Z,15.52
2023-02-02T02:44:42.076Z,16.33
2023-02-02T02:49:45.387Z,13.50
2023-02-02T02:54:51.289Z,12.77
2023-02-02T03:00:18.303Z,17.75
2023-02-02T03:05:51.074Z,19.55
2023-02-02T03:10:53.920Z,17.65
2023-02-02T03:15:56.068Z,13.60
2023-02-02T03:20:58.004Z,13.57
2023-02-02T03:25:59.810Z,15.90
2023-02-02T03:31:02.420Z,8.73
2023-02-02T03:36:04.291Z,12.05
2023-02-02T03:41:06.215Z,12.43
2023-02-02T03:46:07.908Z,10.65
2023-02-02T03:51:11.944Z,19.70
2023-02-02T03:56:14.309Z,13.15
2023-02-02T04:01:15.948Z,12.75
2023-02-02T04:06:19.810Z,13.95
2023-02-02T04:11:21.410Z,10.27
2023-02-02T04:16:23.508Z,12.98
2023-02-02T04:21:25.067Z,9.18
2023-02-02T04:26:27.161Z,8.38
2023-02-02T04:31:29.904Z,10.18
2023-02-02T04:36:31.525Z,7.45
2023-02-02T04:41:33.080Z,9.02
2023-02-02T04:46:34.623Z,8.02
2023-02-02T04:51:36.201Z,9.75
2023-02-02T04:56:40.138Z,9.43
2023-02-02T05:01:41.726Z,9.80
2023-02-02T05:06:43.270Z,9.77
2023-02-02T05:11:44.946Z,9.35
2023-02-02T05:16:46.555Z,11.18
2023-02-02T05:21:51.142Z,10.55
2023-02-02T05:26:58.338Z,11.43
2023-02-02T05:32:00.340Z,8.93
2023-02-02T05:37:01.981Z,11.85
2023-02-02T05:42:03.701Z,19.67
2023-02-02T05:47:05.578Z,8.40
2023-02-02T05:52:07.265Z,7.50
2023-02-02T05:57:08.800Z,8.63
2023-02-02T06:02:10.332Z,6.82
2023-02-02T06:07:12.506Z,11.05
2023-02-02T06:12:14.082Z,9.60
2023-02-02T06:17:15.680Z,8.70
2023-02-02T06:22:17.300Z,9.65
2023-02-02T06:27:20.701Z,10.35
2023-02-02T06:32:22.273Z,10.05
2023-02-02T06:37:23.925Z,9.02
2023-02-02T06:42:25.509Z,13.15
2023-02-02T06:47:27.298Z,13.38
2023-02-02T06:52:28.958Z,6.97
2023-02-02T06:57:30.676Z,8.18
2023-02-02T07:02:32.337Z,11.45
2023-02-02T07:07:35.028Z,13.10
2023-02-02T07:12:36.562Z,7.70
2023-02-02T07:17:38.192Z,13.73
2023-02-02T07:22:40.399Z,11.40
2023-02-02T07:27:42.142Z,15.73
2023-02-02T07:32:50.667Z,10.05
2023-02-02T07:37:54.182Z,11.63
2023-02-02T07:42:55.998Z,11.35
2023-02-02T07:47:59.173Z,9.07
2023-02-02T07:53:01.104Z,14.05
2023-02-02T07:58:02.930Z,13.13
2023-02-02T08:03:04.583Z,10.55
2023-02-02T08:08:06.169Z,10.63
2023-02-02T08:13:07.725Z,12.07
2023-02-02T08:18:09.312Z,9.75
2023-02-02T08:23:15.645Z,9.85
2023-02-02T08:28:18.328Z,14.45
2023-02-02T08:33:19.905Z,14.18
2023-02-02T08:38:23.863Z,9.77
2023-02-02T08:43:25.405Z,12.88
2023-02-02T08:48:27.055Z,7.65
2023-02-02T08:53:29.786Z,9.00
2023-02-02T08:58:32.300Z,10.73
2023-02-02T09:03:35.106Z,9.52
2023-02-02T09:08:37.368Z,7.50
2023-02-02T09:13:40.578Z,10.18
2023-02-02T09:18:43.583Z,11.38
2023-02-02T09:23:46.711Z,13.93
2023-02-02T09:28:57.438Z,17.05
2023-02-02T09:34:03.251Z,15.00
2023-02-02T09:39:06.384Z,9.55
2023-02-02T09:44:29.765Z,12.60
2023-02-02T09:49:59.316Z,13.82
2023-02-02T09:55:07.116Z,10.55
2023-02-02T10:00:29.486Z,8.93
2023-02-02T10:05:44.798Z,13.95
2023-02-02T10:10:48.196Z,15.45
2023-02-02T10:16:03.639Z,11.52
2023-02-02T10:21:27.580Z,15.35
2023-02-02T10:26:55.617Z,14.88
2023-02-02T10:32:00.392Z,12.13
2023-02-02T10:37:15.408Z,13.70
2023-02-02T10:43:13.081Z,11.10
2023-02-02T10:48:22.167Z,12.98
2023-02-02T10:53:28.498Z,11.60
2023-02-02T10:58:44.724Z,12.30
2023-02-02T11:03:46.422Z,14.35
2023-02-02T11:08:56.832Z,13.23
2023-02-02T11:14:11.416Z,13.48
2023-02-02T11:19:22.026Z,13.57
2023-02-02T11:24:28.419Z,12.00
2023-02-02T11:29:39.270Z,9.45
2023-02-02T11:34:40.836Z,10.07
2023-02-02T11:39:45.178Z,13.00
2023-02-02T11:44:55.694Z,11.65
2023-02-02T11:50:00.889Z,12.52
2023-02-02T11:55:14.917Z,12.45
2023-02-02T12:00:19.043Z,18.50
2023-02-02T12:05:20.549Z,17.80
2023-02-02T12:10:47.400Z,10.48
2023-02-02T12:16:16.639Z,13.73
2023-02-02T12:21:28.041Z,14.90
2023-02-02T12:26:34.324Z,12.90
2023-02-02T12:32:00.322Z,18.17
2023-02-02T12:37:26.681Z,13.20
2023-02-02T12:42:52.448Z,12.23
2023-02-02T12:48:21.680Z,14.60
2023-02-02T12:53:40.283Z,11.57
2023-02-02T12:59:16.928Z,12.20
2023-02-02T13:04:21.550Z,11.15
2023-02-02T13:09:50.057Z,15.77
2023-02-02T13:14:59.618Z,10.27
2023-02-02T13:20:05.472Z,12.90
2023-02-02T13:25:17.512Z,10.82
2023-02-02T13:30:35.162Z,13.07
2023-02-02T13:35:51.412Z,12.48
2023-02-02T13:40:59.769Z,13.05
2023-02-02T13:46:19.687Z,8.70
2023-02-02T13:51:51.053Z,10.02
2023-02-02T13:57:35.659Z,13.35
2023-02-02T14:02:45.056Z,8.43
2023-02-02T14:07:48.019Z,10.18
2023-02-02T14:12:49.978Z,11.05
2023-02-02T14:17:54.004Z,13.18
2023-02-02T14:22:55.529Z,10.73
2023-02-02T14:28:09.649Z,12.77
2023-02-02T14:33:26.807Z,11.93
2023-02-02T14:38:45.308Z,11.63
2023-02-02T14:43:51.290Z,13.02
2023-02-02T14:48:52.842Z,10.38
2023-02-02T14:54:00.693Z,10.88
2023-02-02T14:59:03.082Z,9.50
2023-02-02T15:04:19.918Z,10.80
2023-02-02T15:09:26.556Z,14.48
2023-02-02T15:14:33.959Z,7.10
2023-02-02T15:19:40.308Z,10.68
2023-02-02T15:24:45.701Z,8.13
2023-02-02T15:29:54.855Z,7.15
2023-02-02T15:35:02.192Z,10.33
2023-02-02T15:40:07.705Z,6.35
2023-02-02T15:45:29.657Z,6.47
2023-02-02T15:50:31.439Z,8.02
2023-02-02T15:55:35.587Z,11.13
2023-02-02T16:00:38.194Z,5.72
2023-02-02T16:05:56.015Z,7.10
2023-02-02T16:11:05.556Z,7.88
2023-02-02T16:16:22.394Z,4.22
2023-02-02T16:21:25.810Z,4.57
2023-02-02T16:26:30.185Z,9.85
2023-02-02T16:31:35.769Z,8.13
2023-02-02T16:36:37.428Z,6.80
2023-02-02T16:41:39.025Z,8.00
2023-02-02T16:46:49.584Z,7.05
2023-02-02T16:52:13.377Z,9.52
2023-02-02T16:57:19.613Z,9.55
2023-02-02T17:02:35.604Z,8.13
2023-02-02T17:07:38.275Z,8.55
2023-02-02T17:12:39.822Z,6.97
2023-02-02T17:17:41.358Z,5.15
2023-02-02T17:22:52.464Z,4.45
2023-02-02T17:27:55.709Z,10.10
2023-02-02T17:32:57.728Z,6.97
2023-02-02T17:37:59.320Z,8.02
2023-02-02T17:43:02.332Z,4.90
2023-02-02T17:48:04.779Z,5.95
2023-02-02T17:53:07.003Z,7.28
2023-02-02T17:58:10.552Z,5.80
2023-02-02T18:03:17.140Z,5.63
2023-02-02T18:08:18.869Z,4.88
2023-02-02T18:13:22.583Z,7.25
2023-02-02T18:18:24.161Z,6.18
2023-02-02T18:23:25.873Z,6.38
2023-02-02T18:28:27.461Z,5.07
2023-02-02T18:33:28.988Z,7.30
2023-02-02T18:38:30.586Z,7.63
2023-02-02T18:43:32.249Z,6.90
2023-02-02T18:48:33.823Z,6.43
2023-02-02T18:53:35.440Z,9.50
2023-02-02T18:58:37.161Z,5.88
2023-02-02T19:03:39.497Z,9.52
2023-02-02T19:08:41.088Z,4.88
2023-02-02T19:13:43.852Z,5.05
2023-02-02T19:18:46.253Z,6.53
2023-02-02T19:23:47.844Z,5.85
2023-02-02T19:28:49.488Z,10.25
2023-02-02T19:33:52.946Z,7.20
2023-02-02T19:39:17.203Z,6.35
2023-02-02T19:44:21.213Z,8.98
2023-02-02T19:49:22.746Z,6.32
2023-02-02T19:54:45.235Z,8.20
2023-02-02T19:59:49.272Z,6.07
2023-02-02T20:05:06.158Z,7.15
2023-02-02T20:10:24.548Z,3.70
2023-02-02T20:15:33.825Z,6.05
2023-02-02T20:20:40.625Z,4.93
2023-02-02T20:25:44.175Z,9.60
2023-02-02T20:30:49.463Z,6.10
2023-02-02T20:35:51.628Z,6.90
2023-02-02T20:40:54.114Z,5.47
2023-02-02T20:45:55.817Z,4.68
2023-02-02T20:50:57.459Z,6.45
2023-02-02T20:56:01.693Z,6.82
2023-02-02T21:01:06.278Z,5.60
2023-02-02T21:06:07.905Z,3.75
2023-02-02T21:11:09.661Z,4.60
2023-02-02T21:16:11.371Z,4.47
2023-02-02T21:21:14.257Z,4.55
2023-02-02T21:26:21.970Z,5.30
2023-02-02T21:31:24.397Z,5.80
2023-02-02T21:36:33.271Z,8.88
2023-02-02T21:41:34.904Z,4.45
2023-02-02T21:46:38.386Z,3.92
2023-02-02T21:51:39.967Z,7.20
2023-02-02T21:56:42.134Z,4.40
2023-02-02T22:01:45.098Z,5.00
2023-02-02T22:06:52.130Z,5.85
2023-02-02T22:12:02.608Z,5.72
2023-02-02T22:17:24.580Z,6.53
2023-02-02T22:22:32.590Z,5.00
2023-02-02T22:27:42.534Z,6.45
2023-02-02T22:32:44.172Z,4.25
2023-02-02T22:37:45.882Z,4.90
2023-02-02T22:42:47.609Z,3.72
2023-02-02T22:47:49.624Z,4.88
2023-02-02T22:52:51.569Z,5.82
2023-02-02T22:57:53.384Z,6.70
2023-02-02T23:02:55.613Z,3.50
2023-02-02T23:07:57.257Z,5.85
2023-02-02T23:12:59.195Z,4.90
2023-02-02T23:18:00.986Z,6.22
2023-02-02T23:23:02.685Z,3.33
2023-02-02T23:28:04.401Z,5.38
2023-02-02T23:33:06.014Z,4.28
2023-02-02T23:38:07.540Z,6.13
2023-02-02T23:43:09.142Z,3.80
2023-02-02T23:48:11.096Z,4.03
2023-02-02T23:53:13.179Z,5.47
2023-02-02T23:58:15.020Z,7.45
